Time;durP1;ratioP1;P1;durP2;ratioP2;P2;SDS_P1;SDS_P2;PMS_P1;PMS_P2;Temp;Humidity;BMP_temperature;BMP_pressure;BME280_temperature;BME280_humidity;BME280_pressure;Samples;Min_cycle;Max_cycle;Signal;HPM_P1;HPM_P2
2023/07/10 00:03:47;;;;;;;5.07;3.97;;;23.00;93.30;;;;;;10457689;28;20511;-65
2023/07/10 00:08:47;;;;;;;5.93;4.15;;;23.00;93.30;;;;;;10454399;28;20024;-66
2023/07/10 00:13:48;;;;;;;4.65;3.53;;;23.00;93.30;;;;;;10444007;28;20029;-66
2023/07/10 00:18:49;;;;;;;6.60;3.70;;;23.00;93.30;;;;;;10433528;28;20017;-65
2023/07/10 00:23:50;;;;;;;4.88;3.55;;;22.90;93.40;;;;;;10441907;28;20017;-66
2023/07/10 00:28:54;;;;;;;6.13;3.92;;;22.90;93.40;;;;;;10441485;28;20035;-66
2023/07/10 00:33:55;;;;;;;7.25;3.85;;;22.90;93.40;;;;;;10441578;28;20020;-66
2023/07/10 00:38:57;;;;;;;6.57;3.92;;;22.90;93.40;;;;;;10446512;28;20040;-66
2023/07/10 00:44:00;;;;;;;6.82;4.03;;;22.90;93.40;;;;;;10454527;28;20498;-66
2023/07/10 00:49:19;;;;;;;7.53;4.15;;;22.90;93.50;;;;;;10451128;28;20028;-65
2023/07/10 00:54:28;;;;;;;6.88;4.55;;;22.80;93.50;;;;;;10443021;28;20025;-64
2023/07/10 00:59:33;;;;;;;6.53;4.47;;;22.80;93.50;;;;;;10442406;28;20028;-66
2023/07/10 01:04:35;;;;;;;5.57;4.00;;;22.80;93.50;;;;;;10445395;28;20132;-66
2023/07/10 01:09:38;;;;;;;6.22;4.40;;;22.80;93.50;;;;;;10438578;28;20123;-66
2023/07/10 01:14:38;;;;;;;8.45;4.53;;;22.80;93.60;;;;;;10433590;28;20024;-66
2023/07/10 01:19:41;;;;;;;10.23;5.13;;;22.80;93.60;;;;;;10448032;28;20040;-66
2023/07/10 01:24:42;;;;;;;7.18;4.80;;;22.80;93.60;;;;;;10439517;28;20033;-66
2023/07/10 01:29:47;;;;;;;5.32;4.18;;;22.70;93.60;;;;;;10446201;28;20500;-66
2023/07/10 01:34:55;;;;;;;6.53;4.53;;;22.70;93.60;;;;;;10445374;28;20023;-66
2023/07/10 01:39:55;;;;;;;6.35;4.53;;;22.70;93.70;;;;;;10447768;28;20033;-66
2023/07/10 01:44:56;;;;;;;9.75;5.15;;;22.70;93.90;;;;;;10440934;28;20017;-66
2023/07/10 01:49:58;;;;;;;7.63;4.40;;;22.70;93.70;;;;;;10448097;28;20120;-66
2023/07/10 01:54:59;;;;;;;8.15;4.85;;;22.70;93.70;;;;;;10446138;28;20029;-66
2023/07/10 01:59:59;;;;;;;6.95;4.80;;;22.60;93.70;;;;;;10443412;28;20028;-67
2023/07/10 02:05:00;;;;;;;6.93;5.03;;;22.50;93.70;;;;;;10443990;28;20028;-67
2023/07/10 02:10:01;;;;;;;8.07;4.70;;;22.60;93.70;;;;;;10447832;28;20047;-69
2023/07/10 02:15:01;;;;;;;6.65;5.07;;;22.60;93.80;;;;;;10446558;28;20032;-68
2023/07/10 02:20:02;;;;;;;6.72;4.93;;;22.60;93.80;;;;;;10444106;28;20102;-67
2023/07/10 02:25:03;;;;;;;5.57;4.57;;;22.50;93.80;;;;;;10453423;28;20317;-67
2023/07/10 02:30:05;;;;;;;6.63;4.88;;;22.50;93.80;;;;;;10447872;28;20078;-68
2023/07/10 02:35:05;;;;;;;6.55;4.80;;;22.50;93.80;;;;;;10440886;28;20028;-68
2023/07/10 02:40:06;;;;;;;7.85;4.97;;;22.50;93.80;;;;;;10455080;28;20021;-67
2023/07/10 02:45:07;;;;;;;7.10;5.32;;;22.50;93.80;;;;;;10448746;28;20033;-67
2023/07/10 02:50:09;;;;;;;6.25;4.85;;;22.50;93.90;;;;;;10447048;28;20081;-67
2023/07/10 02:55:10;;;;;;;6.70;4.70;;;22.40;93.80;;;;;;10447150;28;20224;-67
2023/07/10 03:00:11;;;;;;;7.10;4.55;;;22.40;93.90;;;;;;10440325;28;20047;-68
2023/07/10 03:05:11;;;;;;;6.03;4.18;;;22.40;93.90;;;;;;10459478;28;20393;-67
2023/07/10 03:10:12;;;;;;;5.00;3.95;;;22.30;93.90;;;;;;10459870;28;20020;-68
2023/07/10 03:15:13;;;;;;;6.60;3.80;;;22.40;93.90;;;;;;10450212;28;20025;-68
2023/07/10 03:20:14;;;;;;;5.50;3.60;;;22.30;93.90;;;;;;10451005;28;20022;-68
2023/07/10 03:25:14;;;;;;;6.18;3.55;;;22.30;93.90;;;;;;10456491;28;20058;-67
2023/07/10 03:30:15;;;;;;;4.68;3.15;;;22.30;93.90;;;;;;10449766;28;20036;-68
2023/07/10 03:35:23;;;;;;;5.93;3.38;;;22.30;93.90;;;;;;10452895;28;20036;-67
2023/07/10 03:40:24;;;;;;;4.13;2.78;;;22.30;93.90;;;;;;10455889;28;20024;-67
2023/07/10 03:45:24;;;;;;;3.97;2.95;;;22.20;93.90;;;;;;10451255;28;20021;-68
2023/07/10 03:50:25;;;;;;;2.88;2.42;;;22.20;93.90;;;;;;10449968;28;20025;-67
2023/07/10 03:55:26;;;;;;;4.72;2.70;;;22.20;93.90;;;;;;10458412;28;20485;-67
2023/07/10 04:00:26;;;;;;;3.95;2.80;;;22.20;93.80;;;;;;10451686;28;20032;-68
2023/07/10 04:05:27;;;;;;;3.67;2.63;;;22.20;93.80;;;;;;10458795;28;20040;-67
2023/07/10 04:10:31;;;;;;;2.38;2.13;;;22.10;93.80;;;;;;10456029;28;20035;-68
2023/07/10 04:15:32;;;;;;;3.85;2.70;;;22.10;93.80;;;;;;10451912;28;20373;-67
2023/07/10 04:20:33;;;;;;;3.65;2.30;;;22.10;93.70;;;;;;10451831;28;20025;-67
2023/07/10 04:25:37;;;;;;;4.35;2.33;;;22.10;93.70;;;;;;10450268;28;20033;-68
2023/07/10 04:30:37;;;;;;;3.63;2.35;;;22.10;93.70;;;;;;10429676;28;20079;-68
2023/07/10 04:35:39;;;;;;;4.10;2.25;;;22.10;93.70;;;;;;10445516;28;20442;-68
2023/07/10 04:40:39;;;;;;;3.53;2.00;;;22.10;93.70;;;;;;10448987;28;20487;-68
2023/07/10 04:45:40;;;;;;;3.10;1.70;;;22.10;93.70;;;;;;10442591;28;20021;-67
2023/07/10 04:50:48;;;;;;;3.25;2.00;;;22.10;93.60;;;;;;10451520;28;20017;-68
2023/07/10 04:55:50;;;;;;;3.38;2.08;;;22.00;93.60;;;;;;10448981;28;20037;-67
2023/07/10 05:00:55;;;;;;;3.30;1.70;;;22.00;93.50;;;;;;10440752;28;20012;-67
2023/07/10 05:05:58;;;;;;;3.05;1.95;;;22.00;93.50;;;;;;10449452;28;20410;-67
2023/07/10 05:10:59;;;;;;;2.60;2.00;;;22.00;93.50;;;;;;10451181;28;20112;-67
2023/07/10 05:16:00;;;;;;;2.92;1.95;;;22.00;93.40;;;;;;10428860;28;20031;-67
2023/07/10 05:21:03;;;;;;;2.42;1.52;;;22.00;93.40;;;;;;10441969;28;20033;-67
2023/07/10 05:26:05;;;;;;;3.67;1.90;;;22.00;93.40;;;;;;10440703;28;20033;-67
2023/07/10 05:31:07;;;;;;;2.63;1.70;;;22.00;93.40;;;;;;10438749;28;20013;-67
2023/07/10 05:36:11;;;;;;;4.78;1.67;;;22.00;93.30;;;;;;10441442;28;20400;-67
2023/07/10 05:41:11;;;;;;;3.80;1.77;;;22.00;93.30;;;;;;10450252;28;20041;-67
2023/07/10 05:46:12;;;;;;;2.63;1.50;;;22.00;93.50;;;;;;10443018;28;20107;-67
2023/07/10 05:51:13;;;;;;;2.42;1.50;;;22.00;93.20;;;;;;10441315;28;20025;-68
2023/07/10 05:56:13;;;;;;;2.85;1.50;;;22.00;93.20;;;;;;10446217;28;20059;-67
2023/07/10 06:01:14;;;;;;;1.80;1.48;;;22.00;93.10;;;;;;10448355;28;20013;-67
2023/07/10 06:06:14;;;;;;;2.25;1.55;;;22.00;93.10;;;;;;10422655;28;20079;-67
2023/07/10 06:11:15;;;;;;;2.05;1.40;;;22.00;93.10;;;;;;10442346;28;20025;-67
2023/07/10 06:16:16;;;;;;;2.17;1.40;;;22.00;93.10;;;;;;10432143;28;20022;-67
2023/07/10 06:21:16;;;;;;;3.35;1.40;;;22.00;93.10;;;;;;10432857;28;20024;-67
2023/07/10 06:26:17;;;;;;;1.90;1.30;;;21.90;93.10;;;;;;10442007;28;20025;-67
2023/07/10 06:31:18;;;;;;;3.40;1.45;;;21.90;93.10;;;;;;10436499;28;20046;-67
2023/07/10 06:36:18;;;;;;;2.92;1.52;;;21.90;93.10;;;;;;10439461;28;20021;-67
2023/07/10 06:41:19;;;;;;;3.05;1.45;;;21.90;93.10;;;;;;10442331;28;20014;-67
2023/07/10 06:46:21;;;;;;;2.25;1.30;;;21.90;93.00;;;;;;10449733;28;20465;-67
2023/07/10 06:51:22;;;;;;;2.20;1.35;;;21.90;93.00;;;;;;10449539;28;20025;-67
2023/07/10 06:56:22;;;;;;;2.90;1.50;;;22.00;93.00;;;;;;10457725;28;20017;-67
2023/07/10 07:01:23;;;;;;;1.95;1.23;;;22.00;93.00;;;;;;10453917;28;20025;-67
2023/07/10 07:06:24;;;;;;;2.92;1.67;;;22.00;93.00;;;;;;10440148;28;20411;-67
2023/07/10 07:11:24;;;;;;;3.10;1.60;;;22.00;93.00;;;;;;10444421;28;20021;-67
2023/07/10 07:16:26;;;;;;;2.88;1.65;;;22.00;92.90;;;;;;10444021;28;20027;-68
2023/07/10 07:21:26;;;;;;;2.75;1.40;;;22.00;92.90;;;;;;10449356;28;20017;-67
2023/07/10 07:26:27;;;;;;;2.83;1.60;;;22.00;92.90;;;;;;10447156;28;20040;-67
2023/07/10 07:31:28;;;;;;;4.05;1.80;;;22.00;92.90;;;;;;10447338;28;20020;-67
2023/07/10 07:36:32;;;;;;;1.98;1.35;;;22.00;92.90;;;;;;10447675;28;20017;-67
2023/07/10 07:41:33;;;;;;;3.28;1.67;;;22.00;92.90;;;;;;10451389;28;20099;-67
2023/07/10 07:46:34;;;;;;;2.42;1.40;;;22.10;92.80;;;;;;10453454;28;20400;-68
2023/07/10 07:51:36;;;;;;;3.13;1.50;;;22.10;92.80;;;;;;10449175;28;20017;-67
2023/07/10 07:56:37;;;;;;;3.78;1.52;;;22.10;92.80;;;;;;10447332;28;20033;-68
2023/07/10 08:01:37;;;;;;;2.38;1.40;;;22.20;92.70;;;;;;10453788;28;20017;-67
2023/07/10 08:06:38;;;;;;;4.57;1.58;;;22.20;92.70;;;;;;10444356;28;20102;-66
2023/07/10 08:11:39;;;;;;;4.00;1.63;;;22.30;92.70;;;;;;10441077;28;20067;-66
2023/07/10 08:16:39;;;;;;;2.90;1.70;;;22.20;92.60;;;;;;10449431;28;20061;-66
2023/07/10 08:21:40;;;;;;;3.85;1.20;;;22.20;92.60;;;;;;10438709;28;20021;-66
2023/07/10 08:26:41;;;;;;;3.55;1.75;;;22.30;92.60;;;;;;10446872;28;20306;-65
2023/07/10 08:31:41;;;;;;;2.50;1.40;;;22.30;92.60;;;;;;10441684;28;20021;-66
2023/07/10 08:36:42;;;;;;;4.57;2.35;;;22.30;92.50;;;;;;10444756;28;20039;-65
2023/07/10 08:41:43;;;;;;;4.45;1.77;;;22.30;92.50;;;;;;10452742;28;20013;-66
2023/07/10 08:46:43;;;;;;;3.05;1.40;;;22.40;92.40;;;;;;10441764;28;20032;-66
2023/07/10 08:51:59;;;;;;;6.30;2.00;;;22.40;92.40;;;;;;10435926;28;20048;-65
2023/07/10 08:57:18;;;;;;;3.78;1.70;;;22.40;92.40;;;;;;10454451;28;20025;-66
2023/07/10 09:02:40;;;;;;;3.53;1.77;;;22.50;92.40;;;;;;10446799;28;20074;-66
2023/07/10 09:07:44;;;;;;;4.07;1.63;;;22.50;92.30;;;;;;10442785;28;20481;-66
2023/07/10 09:12:53;;;;;;;3.10;1.48;;;22.50;92.20;;;;;;10450772;28;20096;-66
2023/07/10 09:18:20;;;;;;;2.90;1.40;;;22.60;92.20;;;;;;10437080;28;20119;-65
2023/07/10 09:23:33;;;;;;;4.18;1.88;;;22.60;92.10;;;;;;10445845;28;20024;-66
2023/07/10 09:28:34;;;;;;;4.25;1.52;;;22.60;92.10;;;;;;10440253;28;20565;-66
2023/07/10 09:33:44;;;;;;;3.28;1.70;;;22.70;92.00;;;;;;10449532;28;20061;-66
2023/07/10 09:38:46;;;;;;;3.53;1.92;;;22.70;91.90;;;;;;10450345;28;20232;-66
2023/07/10 09:43:50;;;;;;;1.67;1.30;;;22.70;91.90;;;;;;10441217;28;20096;-66
2023/07/10 09:48:53;;;;;;;2.97;1.40;;;22.80;91.80;;;;;;10451373;28;20032;-66
2023/07/10 09:54:03;;;;;;;5.00;1.80;;;22.80;91.80;;;;;;10446034;28;20032;-64
2023/07/10 09:59:22;;;;;;;6.43;1.50;;;22.80;91.80;;;;;;10448068;28;20049;-65
2023/07/10 10:04:28;;;;;;;6.75;2.28;;;22.90;91.70;;;;;;10444121;28;20524;-64
2023/07/10 10:09:29;;;;;;;3.17;1.60;;;22.90;91.70;;;;;;10447903;28;20035;-65
2023/07/10 10:14:57;;;;;;;3.50;1.50;;;22.90;91.70;;;;;;10447540;28;20033;-66
2023/07/10 10:20:06;;;;;;;4.78;1.90;;;23.00;91.60;;;;;;10444421;28;20118;-66
2023/07/10 10:25:19;;;;;;;3.38;1.50;;;23.00;91.60;;;;;;10448083;28;20393;-65
2023/07/10 10:30:34;;;;;;;3.53;1.60;;;23.00;91.50;;;;;;10447731;28;20381;-66
2023/07/10 10:35:56;;;;;;;3.30;1.83;;;23.00;91.50;;;;;;10448003;28;20028;-66
2023/07/10 10:41:02;;;;;;;2.72;1.67;;;23.10;91.40;;;;;;10445508;28;20035;-66
2023/07/10 10:46:17;;;;;;;4.60;1.60;;;23.20;91.40;;;;;;10445332;28;20558;-66
2023/07/10 10:51:39;;;;;;;3.78;1.73;;;23.20;91.20;;;;;;10438609;28;20485;-65
2023/07/10 10:56:53;;;;;;;5.07;1.75;;;23.30;91.20;;;;;;10443555;28;20021;-66
2023/07/10 11:02:12;;;;;;;4.47;1.75;;;23.30;91.10;;;;;;10442476;28;20013;-65
2023/07/10 11:07:21;;;;;;;4.43;1.50;;;23.40;91.00;;;;;;10448039;28;20021;-66
2023/07/10 11:12:27;;;;;;;3.78;1.70;;;23.40;90.90;;;;;;10439537;28;20484;-65
2023/07/10 11:17:31;;;;;;;3.75;1.60;;;23.50;90.90;;;;;;10442607;28;20031;-65
2023/07/10 11:22:34;;;;;;;4.10;1.70;;;23.50;90.80;;;;;;10437428;28;20032;-65
2023/07/10 11:27:41;;;;;;;5.32;1.85;;;23.50;90.80;;;;;;10443537;28;20060;-65
2023/07/10 11:33:19;;;;;;;4.03;1.60;;;23.50;90.70;;;;;;10450595;28;20071;-66
2023/07/10 11:38:21;;;;;;;2.45;1.52;;;23.60;90.60;;;;;;10438076;28;20428;-66
2023/07/10 11:43:25;;;;;;;3.10;1.65;;;23.60;90.70;;;;;;10441843;28;20561;-66
2023/07/10 11:48:40;;;;;;;5.20;1.42;;;23.70;90.50;;;;;;10443216;28;20016;-66
2023/07/10 11:53:41;;;;;;;3.10;2.15;;;23.70;90.30;;;;;;10449526;28;20017;-65
2023/07/10 11:58:42;;;;;;;5.28;1.90;;;23.80;90.40;;;;;;10440305;28;20024;-66
2023/07/10 12:03:43;;;;;;;5.60;1.83;;;23.80;90.30;;;;;;10439827;28;20038;-66
2023/07/10 12:08:45;;;;;;;5.88;1.60;;;23.90;90.10;;;;;;10447231;28;20021;-66
2023/07/10 12:13:46;;;;;;;2.70;1.33;;;24.00;90.00;;;;;;10445697;28;20055;-66
2023/07/10 12:18:47;;;;;;;3.08;1.15;;;24.00;89.80;;;;;;10435679;28;20490;-66
2023/07/10 12:24:02;;;;;;;5.78;1.70;;;24.00;89.60;;;;;;10445284;28;20014;-66
2023/07/10 12:29:05;;;;;;;4.75;1.42;;;24.10;89.10;;;;;;10440407;28;20238;-66
2023/07/10 12:34:13;;;;;;;3.45;1.30;;;24.10;89.20;;;;;;10436261;28;20047;-66
2023/07/10 12:39:14;;;;;;;4.38;1.38;;;24.10;89.00;;;;;;10443796;28;20574;-66
2023/07/10 12:44:20;;;;;;;3.17;1.58;;;24.20;89.00;;;;;;10441384;28;20123;-66
2023/07/10 12:49:27;;;;;;;2.22;1.17;;;24.20;88.80;;;;;;10435625;28;20029;-66
2023/07/10 12:54:39;;;;;;;2.67;1.05;;;24.30;88.70;;;;;;10450427;28;20044;-66
2023/07/10 12:59:40;;;;;;;4.13;1.30;;;24.30;88.30;;;;;;10434882;28;20052;-66
2023/07/10 13:04:50;;;;;;;2.67;1.25;;;24.30;88.40;;;;;;10441973;28;20105;-66
2023/07/10 13:09:56;;;;;;;4.38;1.40;;;24.40;88.20;;;;;;10440755;28;20104;-66
2023/07/10 13:14:58;;;;;;;1.85;1.27;;;24.40;88.10;;;;;;10439814;28;20051;-66
2023/07/10 13:19:59;;;;;;;2.95;1.20;;;24.50;88.00;;;;;;10442165;28;20641;-67
2023/07/10 13:24:59;;;;;;;3.45;1.20;;;24.50;87.90;;;;;;10448485;28;20028;-65
2023/07/10 13:30:00;;;;;;;1.92;1.35;;;24.60;87.90;;;;;;10436124;28;20024;-66
2023/07/10 13:35:01;;;;;;;1.95;1.25;;;24.70;87.70;;;;;;10441300;28;20028;-66
2023/07/10 13:40:03;;;;;;;2.70;1.17;;;24.80;87.60;;;;;;10445631;28;20215;-65
2023/07/10 13:45:04;;;;;;;3.47;1.20;;;24.90;87.60;;;;;;10434503;28;20036;-65
2023/07/10 13:50:05;;;;;;;3.50;1.30;;;24.90;87.50;;;;;;10440946;28;20025;-65
2023/07/10 13:55:06;;;;;;;2.97;1.10;;;25.00;87.40;;;;;;10443356;28;20029;-66
2023/07/10 14:00:12;;;;;;;3.58;1.27;;;25.10;87.20;;;;;;10447670;28;20032;-66
2023/07/10 14:05:14;;;;;;;3.63;1.05;;;25.20;87.00;;;;;;10446295;28;20060;-64
2023/07/10 14:10:21;;;;;;;2.13;1.00;;;25.30;86.80;;;;;;10447243;28;20020;-64
2023/07/10 14:15:21;;;;;;;2.30;1.05;;;25.40;86.40;;;;;;10438558;28;20365;-67
2023/07/10 14:20:23;;;;;;;2.55;1.00;;;25.50;86.40;;;;;;10447747;28;20021;-65
2023/07/10 14:25:24;;;;;;;1.42;0.88;;;25.60;86.20;;;;;;10446653;28;20112;-66
2023/07/10 14:30:25;;;;;;;1.90;1.13;;;25.80;86.10;;;;;;10438577;28;20092;-66
2023/07/10 14:35:25;;;;;;;5.50;1.20;;;25.80;85.90;;;;;;10439560;28;20083;-66
2023/07/10 14:40:26;;;;;;;2.83;1.38;;;26.00;85.80;;;;;;10439673;28;20349;-64
2023/07/10 14:45:27;;;;;;;2.55;0.95;;;26.10;85.70;;;;;;10444467;28;20072;-66
2023/07/10 14:50:27;;;;;;;2.53;1.00;;;26.20;85.30;;;;;;10438005;28;20028;-63
2023/07/10 14:55:28;;;;;;;2.78;1.20;;;26.30;85.30;;;;;;10445005;28;20038;-66
2023/07/10 15:00:30;;;;;;;2.30;0.82;;;26.40;85.10;;;;;;10449252;28;20029;-67
2023/07/10 15:05:30;;;;;;;2.47;1.17;;;26.50;84.80;;;;;;10444914;28;20021;-66
2023/07/10 15:10:31;;;;;;;2.75;0.80;;;26.60;84.90;;;;;;10451295;28;20120;-66
2023/07/10 15:15:37;;;;;;;2.85;0.90;;;26.70;84.70;;;;;;10439772;28;20078;-66
2023/07/10 15:20:38;;;;;;;1.30;0.90;;;26.80;84.50;;;;;;10447786;28;20493;-67
2023/07/10 15:25:40;;;;;;;1.80;0.90;;;26.90;84.40;;;;;;10442499;28;20034;-66
2023/07/10 15:30:41;;;;;;;2.63;1.25;;;27.00;84.20;;;;;;10443245;28;20024;-66
2023/07/10 15:35:41;;;;;;;2.25;0.80;;;27.10;84.20;;;;;;10448998;28;20082;-66
2023/07/10 15:40:45;;;;;;;2.42;0.70;;;27.10;84.10;;;;;;10451179;28;20082;-66
2023/07/10 15:45:47;;;;;;;2.15;0.70;;;27.20;83.90;;;;;;10448455;28;20055;-67
2023/07/10 15:50:52;;;;;;;2.55;0.70;;;27.30;83.80;;;;;;10440732;28;20019;-65
2023/07/10 15:55:53;;;;;;;1.42;0.70;;;27.30;83.70;;;;;;10452287;28;20047;-67
2023/07/10 16:00:56;;;;;;;3.13;0.70;;;27.30;83.70;;;;;;10452967;28;20092;-66
2023/07/10 16:06:03;;;;;;;1.75;0.80;;;27.30;83.80;;;;;;10447693;28;20299;-66
2023/07/10 16:11:15;;;;;;;1.38;0.80;;;27.30;83.70;;;;;;10429840;28;20486;-66
2023/07/10 16:16:15;;;;;;;1.77;0.68;;;27.20;83.40;;;;;;10445875;28;20404;-65
2023/07/10 16:21:21;;;;;;;1.00;0.70;;;27.20;83.90;;;;;;10450343;28;20023;-66
2023/07/10 16:26:23;;;;;;;1.60;0.70;;;27.10;84.00;;;;;;10450011;28;20037;-66
2023/07/10 16:31:27;;;;;;;1.27;0.55;;;27.00;84.20;;;;;;10453973;28;20108;-66
2023/07/10 16:36:30;;;;;;;1.75;0.75;;;26.90;84.30;;;;;;10443921;28;20124;-67
2023/07/10 16:41:31;;;;;;;1.52;0.60;;;26.90;84.70;;;;;;10434306;28;20021;-66
2023/07/10 16:46:33;;;;;;;2.08;0.63;;;26.80;84.70;;;;;;10453425;28;20039;-66
2023/07/10 16:51:34;;;;;;;1.67;0.80;;;26.80;84.90;;;;;;10441458;28;20032;-67
2023/07/10 16:56:35;;;;;;;1.77;1.30;;;26.70;85.50;;;;;;10459686;28;20028;-67
2023/07/10 17:01:36;;;;;;;3.15;0.82;;;26.60;85.00;;;;;;10460999;28;20490;-66
2023/07/10 17:06:36;;;;;;;0.75;0.75;;;26.60;85.00;;;;;;10449224;28;20024;-67
2023/07/10 17:11:38;;;;;;;1.88;0.77;;;26.50;85.00;;;;;;10449831;28;20025;-67
2023/07/10 17:16:39;;;;;;;0.80;0.60;;;26.50;85.10;;;;;;10444851;28;20438;-67
2023/07/10 17:21:40;;;;;;;2.35;0.65;;;26.40;85.20;;;;;;10436872;28;20481;-66
2023/07/10 17:26:40;;;;;;;1.58;0.70;;;26.40;85.20;;;;;;10456590;28;20028;-67
2023/07/10 17:31:41;;;;;;;0.93;0.57;;;26.30;85.20;;;;;;10446673;28;20384;-67
2023/07/10 17:36:42;;;;;;;2.78;0.85;;;26.30;85.20;;;;;;10447669;28;20452;-65
2023/07/10 17:41:43;;;;;;;3.17;0.77;;;26.30;85.20;;;;;;10453288;28;20065;-67
2023/07/10 17:46:44;;;;;;;1.08;0.50;;;26.20;85.10;;;;;;10448951;28;20107;-67
2023/07/10 17:51:45;;;;;;;1.20;0.70;;;26.20;85.10;;;;;;10443716;28;20097;-66
2023/07/10 17:56:45;;;;;;;1.83;0.80;;;26.10;84.70;;;;;;10448056;28;20040;-66
2023/07/10 18:01:46;;;;;;;0.90;0.60;;;26.10;84.40;;;;;;10436312;28;20115;-66
2023/07/10 18:06:47;;;;;;;0.63;0.60;;;26.00;84.30;;;;;;10441665;28;20033;-66
2023/07/10 18:11:48;;;;;;;2.20;0.90;;;26.00;84.40;;;;;;10447119;28;20051;-66
2023/07/10 18:16:49;;;;;;;1.95;0.68;;;25.90;84.40;;;;;;10448302;28;20028;-66
2023/07/10 18:21:53;;;;;;;1.13;0.60;;;25.90;84.20;;;;;;10449136;28;20372;-66
2023/07/10 18:26:54;;;;;;;1.95;0.60;;;25.80;84.30;;;;;;10447407;28;20028;-67
2023/07/10 18:31:55;;;;;;;0.77;0.55;;;25.80;84.50;;;;;;10434034;28;20414;-66
2023/07/10 18:36:55;;;;;;;1.77;0.88;;;25.70;84.50;;;;;;10439548;28;20067;-66
2023/07/10 18:41:57;;;;;;;3.15;0.70;;;25.70;84.40;;;;;;10447322;28;20137;-64
2023/07/10 18:46:58;;;;;;;1.48;0.65;;;25.60;84.50;;;;;;10433257;28;20029;-66
2023/07/10 18:51:58;;;;;;;1.35;0.63;;;25.50;84.60;;;;;;10441097;28;20017;-66
2023/07/10 18:56:59;;;;;;;2.15;0.75;;;25.50;84.60;;;;;;10438016;28;20028;-65
2023/07/10 19:01:59;;;;;;;2.22;0.80;;;25.50;84.60;;;;;;10441915;28;21061;-66
2023/07/10 19:07:00;;;;;;;1.85;0.68;;;25.40;84.60;;;;;;10443151;28;20404;-66
2023/07/10 19:12:01;;;;;;;1.45;0.70;;;25.40;84.80;;;;;;10447655;28;20025;-66
2023/07/10 19:17:04;;;;;;;1.65;0.75;;;25.30;84.50;;;;;;10437205;28;20411;-66
2023/07/10 19:22:05;;;;;;;2.10;0.80;;;25.30;84.60;;;;;;10444574;28;20093;-66
2023/07/10 19:27:05;;;;;;;2.00;0.70;;;25.20;84.40;;;;;;10449598;28;20039;-66
2023/07/10 19:32:12;;;;;;;2.35;0.70;;;25.20;84.60;;;;;;10431401;28;20029;-66
2023/07/10 19:37:13;;;;;;;1.60;0.63;;;25.10;84.50;;;;;;10435197;28;20032;-66
2023/07/10 19:42:14;;;;;;;2.40;0.68;;;25.10;84.70;;;;;;10435978;28;20013;-66
2023/07/10 19:47:17;;;;;;;1.52;0.70;;;25.00;84.70;;;;;;10445477;28;20044;-66
2023/07/10 19:52:18;;;;;;;1.10;0.60;;;25.00;84.70;;;;;;10449963;28;20572;-65
2023/07/10 19:57:24;;;;;;;1.83;0.70;;;24.90;84.80;;;;;;10448122;28;20017;-66
2023/07/10 20:02:25;;;;;;;1.33;0.63;;;24.90;84.80;;;;;;10433388;28;20017;-66
2023/07/10 20:07:26;;;;;;;1.13;0.77;;;24.80;84.80;;;;;;10442596;28;20382;-68
2023/07/10 20:12:28;;;;;;;1.98;0.80;;;24.80;84.80;;;;;;10436022;28;20358;-68
2023/07/10 20:17:35;;;;;;;1.77;0.73;;;24.70;84.70;;;;;;10441751;28;20033;-68
2023/07/10 20:22:36;;;;;;;1.88;0.60;;;24.70;84.60;;;;;;10431904;28;20033;-69
2023/07/10 20:27:37;;;;;;;1.23;0.70;;;24.60;84.70;;;;;;10436992;28;20370;-68
2023/07/10 20:32:38;;;;;;;1.60;0.52;;;24.50;84.60;;;;;;10432905;28;20039;-68
2023/07/10 20:37:39;;;;;;;1.60;0.88;;;24.50;84.60;;;;;;10433288;28;20067;-68
2023/07/10 20:42:40;;;;;;;1.75;0.65;;;24.50;84.60;;;;;;10437696;28;20545;-68
2023/07/10 20:47:47;;;;;;;1.05;0.50;;;24.40;84.50;;;;;;10436016;28;20013;-68
2023/07/10 20:52:48;;;;;;;1.85;0.80;;;24.40;84.40;;;;;;10439383;28;20108;-68
2023/07/10 20:57:50;;;;;;;1.48;0.80;;;24.40;84.50;;;;;;10435196;28;20032;-68
2023/07/10 21:02:51;;;;;;;2.55;0.80;;;24.30;84.40;;;;;;10436169;28;20024;-68
2023/07/10 21:07:51;;;;;;;2.58;0.90;;;24.30;84.40;;;;;;10439802;28;20068;-68
2023/07/10 21:12:52;;;;;;;2.80;0.80;;;24.20;84.30;;;;;;10446095;28;20024;-68
2023/07/10 21:17:52;;;;;;;1.63;0.90;;;24.20;84.40;;;;;;10430877;28;20025;-68
2023/07/10 21:22:55;;;;;;;1.92;0.80;;;24.10;84.40;;;;;;10438187;28;20017;-68
2023/07/10 21:27:56;;;;;;;2.25;0.90;;;24.10;84.20;;;;;;10443980;28;20028;-68
2023/07/10 21:32:56;;;;;;;1.45;0.63;;;24.10;84.20;;;;;;10443453;28;20495;-68
2023/07/10 21:37:57;;;;;;;1.08;0.88;;;24.00;84.20;;;;;;10430554;28;20106;-68
2023/07/10 21:42:58;;;;;;;2.13;0.90;;;24.00;84.20;;;;;;10428991;28;20500;-68
2023/07/10 21:48:01;;;;;;;4.13;1.05;;;23.90;84.10;;;;;;10435670;28;20026;-68
2023/07/10 21:53:01;;;;;;;0.95;0.70;;;23.90;84.10;;;;;;10448424;28;20025;-68
2023/07/10 21:58:02;;;;;;;2.17;0.70;;;23.80;84.00;;;;;;10439946;28;20030;-68
2023/07/10 22:03:02;;;;;;;2.03;0.90;;;23.80;83.90;;;;;;10435518;28;20032;-68
2023/07/10 22:08:03;;;;;;;1.17;0.70;;;23.80;83.90;;;;;;10434616;28;20031;-68
2023/07/10 22:13:13;;;;;;;2.53;0.80;;;23.70;83.90;;;;;;10423085;28;20520;-68
2023/07/10 22:18:19;;;;;;;2.80;1.17;;;23.70;83.70;;;;;;10435314;28;20063;-68
2023/07/10 22:23:24;;;;;;;1.30;0.70;;;23.70;83.90;;;;;;10433640;28;20446;-68
2023/07/10 22:28:30;;;;;;;3.03;0.85;;;23.60;83.80;;;;;;10440826;28;20204;-68
2023/07/10 22:33:34;;;;;;;2.30;1.10;;;23.60;83.80;;;;;;10428459;28;20028;-68
2023/07/10 22:38:35;;;;;;;2.08;0.98;;;23.60;83.70;;;;;;10448838;28;20031;-67
2023/07/10 22:43:46;;;;;;;3.00;1.10;;;23.50;83.60;;;;;;10433420;28;20389;-68
2023/07/10 22:48:47;;;;;;;2.38;1.00;;;23.50;83.30;;;;;;10431435;28;20086;-68
2023/07/10 22:53:48;;;;;;;2.20;1.38;;;23.50;83.70;;;;;;10434927;28;20436;-68
2023/07/10 22:58:50;;;;;;;1.98;0.88;;;23.40;83.60;;;;;;10441605;28;20017;-68
2023/07/10 23:03:51;;;;;;;3.85;1.15;;;23.40;83.60;;;;;;10437701;28;20484;-68
2023/07/10 23:08:54;;;;;;;3.08;1.55;;;23.40;83.60;;;;;;10439149;28;20032;-67
2023/07/10 23:13:54;;;;;;;1.75;1.00;;;23.30;83.50;;;;;;10443408;28;20107;-68
2023/07/10 23:18:59;;;;;;;5.72;1.20;;;23.30;83.40;;;;;;10433096;28;20023;-68
2023/07/10 23:24:00;;;;;;;1.73;1.15;;;23.30;83.30;;;;;;10444151;28;20409;-68
2023/07/10 23:29:01;;;;;;;3.20;1.08;;;23.20;83.40;;;;;;10444678;28;20017;-68
2023/07/10 23:34:04;;;;;;;6.72;1.50;;;23.20;83.40;;;;;;10441388;28;20017;-68
2023/07/10 23:39:05;;;;;;;5.13;1.00;;;23.20;83.40;;;;;;10443672;28;20018;-68
2023/07/10 23:44:06;;;;;;;1.50;0.90;;;23.20;83.30;;;;;;10450452;28;20032;-68
2023/07/10 23:49:06;;;;;;;1.83;0.88;;;23.10;83.20;;;;;;10448465;28;20033;-68
2023/07/10 23:54:07;;;;;;;1.90;1.00;;;23.10;83.10;;;;;;10451490;28;20021;-68
2023/07/10 23:59:08;;;;;;;1.20;0.80;;;23.10;83.20;;;;;;10448438;28;20070;-68
